Time;durP1;ratioP1;P1;durP2;ratioP2;P2;SDS_P1;SDS_P2;PMS_P1;PMS_P2;Temp;Humidity;BMP_temperature;BMP_pressure;BME280_temperature;BME280_humidity;BME280_pressure;Samples;Min_cycle;Max_cycle;Signal;HPM_P1;HPM_P2
2023/04/21 00:01:12;;;;;;;;;;;;;;;6.40;98.44;99704.16;5089241;28;19926;-56
2023/04/21 00:03:37;;;;;;;;;;;;;;;6.37;97.69;99701.56;5072849;28;19924;-56
2023/04/21 00:06:05;;;;;;;;;;;;;;;6.39;98.36;99700.63;5089279;28;19916;-56
2023/04/21 00:08:30;;;;;;;;;;;;;;;6.39;97.92;99707.69;5093024;28;19920;-56
2023/04/21 00:10:55;;;;;;;;;;;;;;;6.30;98.14;99692.03;5090288;28;19920;-56
2023/04/21 00:13:21;;;;;;;;;;;;;;;6.30;98.28;99697.31;5093247;28;19920;-56
2023/04/21 00:15:47;;;;;;;;;;;;;;;6.24;98.08;99702.72;5093897;28;19920;-56
2023/04/21 00:18:12;;;;;;;;;;;;;;;6.27;97.53;99710.59;5093014;28;19920;-56
2023/04/21 00:20:38;;;;;;;;;;;;;;;6.23;97.73;99700.97;5093755;28;19916;-56
2023/04/21 00:23:03;;;;;;;;;;;;;;;6.21;98.31;99703.66;5095212;28;19946;-56
2023/04/21 00:25:28;;;;;;;;;;;;;;;6.21;98.63;99692.22;5092517;28;19942;-56
2023/04/21 00:27:54;;;;;;;;;;;;;;;6.22;98.57;99693.97;5093800;28;20288;-56
2023/04/21 00:30:19;;;;;;;;;;;;;;;6.16;98.17;99704.66;5090725;28;19924;-56
2023/04/21 00:32:44;;;;;;;;;;;;;;;6.08;98.19;99703.94;5093005;28;19968;-56
2023/04/21 00:35:10;;;;;;;;;;;;;;;6.08;98.95;99698.66;5092625;28;20009;-56
2023/04/21 00:37:35;;;;;;;;;;;;;;;6.03;98.25;99690.81;5092240;28;19916;-56
2023/04/21 00:40:00;;;;;;;;;;;;;;;5.99;97.82;99680.34;5092045;28;19931;-56
2023/04/21 00:42:26;;;;;;;;;;;;;;;5.94;98.23;99691.00;5092927;28;19943;-56
2023/04/21 00:44:51;;;;;;;;;;;;;;;5.89;98.37;99682.31;5093085;28;20391;-56
2023/04/21 00:47:17;;;;;;;;;;;;;;;5.87;97.73;99683.22;5093456;28;20006;-56
2023/04/21 00:49:42;;;;;;;;;;;;;;;5.87;98.20;99681.44;5092495;28;19920;-56
2023/04/21 00:52:07;;;;;;;;;;;;;;;5.85;98.21;99682.41;5093227;28;19939;-56
2023/04/21 00:54:34;;;;;;;;;;;;;;;5.81;98.77;99680.66;5091851;28;20003;-56
2023/04/21 00:56:59;;;;;;;;;;;;;;;5.77;98.75;99684.25;5093324;28;19920;-56
2023/04/21 00:59:24;;;;;;;;;;;;;;;5.72;98.69;99686.09;5092952;28;19935;-56
2023/04/21 01:01:51;;;;;;;;;;;;;;;5.73;98.67;99682.59;5093457;28;19969;-56
2023/04/21 01:04:16;;;;;;;;;;;;;;;5.68;98.74;99684.44;5092206;28;19920;-56
2023/04/21 01:06:43;;;;;;;;;;;;;;;5.72;98.90;99675.53;5093175;28;19923;-56
2023/04/21 01:09:08;;;;;;;;;;;;;;;5.69;98.56;99681.78;5092535;28;20474;-56
2023/04/21 01:11:33;;;;;;;;;;;;;;;5.57;98.45;99678.50;5094282;28;19916;-56
2023/04/21 01:13:59;;;;;;;;;;;;;;;5.52;98.69;99672.44;5090804;28;19919;-56
2023/04/21 01:16:25;;;;;;;;;;;;;;;5.52;99.03;99672.44;5090900;28;19923;-56
2023/04/21 01:18:53;;;;;;;;;;;;;;;5.53;99.25;99684.72;5091836;28;19916;-56
2023/04/21 01:21:19;;;;;;;;;;;;;;;5.62;98.75;99689.84;5093528;28;19920;-56
2023/04/21 01:23:44;;;;;;;;;;;;;;;5.59;98.68;99689.88;5092756;28;19919;-56
2023/04/21 01:26:10;;;;;;;;;;;;;;;5.55;98.67;99688.19;5092886;28;19958;-56
2023/04/21 01:28:36;;;;;;;;;;;;;;;5.50;98.44;99690.03;5092748;28;19912;-57
2023/04/21 01:31:01;;;;;;;;;;;;;;;5.47;99.24;99688.31;5091524;28;19916;-56
2023/04/21 01:33:27;;;;;;;;;;;;;;;5.48;99.16;99689.19;5092186;28;19974;-56
2023/04/21 01:35:52;;;;;;;;;;;;;;;5.45;98.85;99687.50;5072484;28;19928;-56
2023/04/21 01:38:18;;;;;;;;;;;;;;;5.47;99.05;99690.94;5092064;28;19916;-56
2023/04/21 01:40:45;;;;;;;;;;;;;;;5.48;99.57;99695.34;5091844;28;20053;-56
2023/04/21 01:43:11;;;;;;;;;;;;;;;5.53;99.82;99687.34;5090352;28;20438;-56
2023/04/21 01:45:36;;;;;;;;;;;;;;;5.54;99.87;99691.72;5091615;28;19954;-56
2023/04/21 01:48:01;;;;;;;;;;;;;;;5.54;100.00;99691.72;5091094;28;19916;-56
2023/04/21 01:50:27;;;;;;;;;;;;;;;5.55;99.77;99693.47;5092316;28;19923;-56
2023/04/21 01:52:52;;;;;;;;;;;;;;;5.50;99.47;99692.69;5092280;28;20497;-56
2023/04/21 01:55:17;;;;;;;;;;;;;;;5.44;98.97;99701.56;5091165;28;20052;-56
2023/04/21 01:57:43;;;;;;;;;;;;;;;5.34;99.38;99703.50;5092242;28;19924;-56
2023/04/21 02:00:08;;;;;;;;;;;;;;;5.36;98.94;99699.06;5092140;28;19924;-56
2023/04/21 02:02:33;;;;;;;;;;;;;;;5.43;99.78;99696.31;5091106;28;19951;-56
2023/04/21 02:04:59;;;;;;;;;;;;;;;5.44;99.99;99695.44;5091717;28;20341;-56
2023/04/21 02:07:24;;;;;;;;;;;;;;;5.40;100.00;99694.63;5091606;28;19916;-56
2023/04/21 02:09:49;;;;;;;;;;;;;;;5.37;99.59;99694.63;5090519;28;20187;-56
2023/04/21 02:12:14;;;;;;;;;;;;;;;5.34;99.87;99699.97;5090673;28;19930;-56
2023/04/21 02:14:40;;;;;;;;;;;;;;;5.36;99.81;99696.44;5090733;28;20003;-56
2023/04/21 02:17:05;;;;;;;;;;;;;;;5.36;100.00;99698.19;5090348;28;19916;-56
2023/04/21 02:19:31;;;;;;;;;;;;;;;5.37;99.94;99697.28;5087908;28;19916;-56
2023/04/21 02:21:56;;;;;;;;;;;;;;;5.39;99.56;99700.75;5090900;28;19934;-56
2023/04/21 02:24:22;;;;;;;;;;;;;;;5.41;100.00;99706.88;5090124;28;19920;-56
2023/04/21 02:26:47;;;;;;;;;;;;;;;5.44;100.00;99700.72;5090483;28;20388;-56
2023/04/21 02:29:12;;;;;;;;;;;;;;;5.45;100.00;99705.06;5093576;28;19963;-56
2023/04/21 02:31:38;;;;;;;;;;;;;;;5.38;99.50;99697.28;5093509;28;19924;-56
2023/04/21 02:34:03;;;;;;;;;;;;;;;5.25;99.06;99710.69;5090415;28;19922;-56
2023/04/21 02:36:28;;;;;;;;;;;;;;;5.13;99.02;99708.22;5090981;28;19924;-56
2023/04/21 02:38:53;;;;;;;;;;;;;;;5.09;99.17;99707.41;5091443;28;19923;-56
2023/04/21 02:41:19;;;;;;;;;;;;;;;5.05;98.94;99702.22;5090346;28;20354;-56
2023/04/21 02:43:44;;;;;;;;;;;;;;;5.10;99.71;99703.00;5091069;28;19920;-56
2023/04/21 02:46:09;;;;;;;;;;;;;;;5.02;98.73;99703.16;5089387;28;19920;-56
2023/04/21 02:48:35;;;;;;;;;;;;;;;5.00;98.92;99699.66;5090028;28;20353;-56
2023/04/21 02:51:00;;;;;;;;;;;;;;;5.04;99.06;99700.50;5089717;28;19916;-56
2023/04/21 02:53:25;;;;;;;;;;;;;;;5.00;98.85;99706.69;5089206;28;19912;-56
2023/04/21 02:55:51;;;;;;;;;;;;;;;4.93;98.65;99703.28;5090053;28;19924;-56
2023/04/21 02:58:17;;;;;;;;;;;;;;;4.87;98.39;99697.22;5088828;28;19939;-56
2023/04/21 03:00:42;;;;;;;;;;;;;;;4.82;98.68;99694.66;5088977;28;20589;-56
2023/04/21 03:03:07;;;;;;;;;;;;;;;4.77;98.74;99688.59;5079315;28;19913;-56
2023/04/21 03:05:32;;;;;;;;;;;;;;;4.75;98.85;99692.13;5071954;28;20550;-56
2023/04/21 03:07:58;;;;;;;;;;;;;;;4.72;98.58;99693.06;5090641;28;20027;-56
2023/04/21 03:10:23;;;;;;;;;;;;;;;4.68;98.65;99696.63;5087846;28;19920;-55
2023/04/21 03:12:48;;;;;;;;;;;;;;;4.65;98.34;99701.94;5088641;28;19920;-56
2023/04/21 03:15:15;;;;;;;;;;;;;;;4.59;98.64;99702.03;5070965;28;19921;-56
2023/04/21 03:17:41;;;;;;;;;;;;;;;4.55;98.65;99702.94;5092282;28;20287;-56
2023/04/21 03:20:07;;;;;;;;;;;;;;;4.56;98.90;99696.81;5089082;28;19920;-56
2023/04/21 03:22:35;;;;;;;;;;;;;;;4.55;99.07;99705.56;5090485;28;19927;-56
2023/04/21 03:25:00;;;;;;;;;;;;;;;4.60;99.06;99709.03;5092309;28;20509;-56
2023/04/21 03:27:26;;;;;;;;;;;;;;;4.63;99.28;99705.50;5090473;28;19912;-56
2023/04/21 03:29:51;;;;;;;;;;;;;;;4.65;99.33;99701.03;5089354;28;20403;-56
2023/04/21 03:32:16;;;;;;;;;;;;;;;4.69;99.57;99706.28;5090168;28;19923;-56
2023/04/21 03:34:41;;;;;;;;;;;;;;;4.80;99.50;99695.56;5090496;28;19916;-56
2023/04/21 03:37:07;;;;;;;;;;;;;;;4.79;99.17;99693.84;5089275;28;20330;-56
2023/04/21 03:39:32;;;;;;;;;;;;;;;4.76;98.98;99694.72;5090472;28;19920;-56
2023/04/21 03:41:57;;;;;;;;;;;;;;;4.71;98.41;99691.28;5089342;28;19920;-56
2023/04/21 03:44:27;;;;;;;;;;;;;;;4.62;98.91;99691.44;5089833;28;19916;-56
2023/04/21 03:46:53;;;;;;;;;;;;;;;4.56;98.99;99686.28;5090016;28;19981;-56
2023/04/21 03:49:18;;;;;;;;;;;;;;;4.51;98.71;99687.22;5088251;28;20368;-56
2023/04/21 03:51:43;;;;;;;;;;;;;;;4.45;99.00;99684.69;5087858;28;19920;-56
2023/04/21 03:54:09;;;;;;;;;;;;;;;4.43;99.00;99684.66;5088210;28;19919;-56
2023/04/21 03:56:34;;;;;;;;;;;;;;;4.43;98.49;99684.66;5087208;28;19924;-56
2023/04/21 03:58:59;;;;;;;;;;;;;;;4.39;98.68;99682.97;5087849;28;20348;-56
2023/04/21 04:01:24;;;;;;;;;;;;;;;4.30;98.92;99683.09;5088032;28;19958;-55
2023/04/21 04:03:50;;;;;;;;;;;;;;;4.21;98.71;99683.22;5089159;28;20589;-56
2023/04/21 04:06:15;;;;;;;;;;;;;;;4.13;98.96;99679.81;5089264;28;20019;-56
2023/04/21 04:08:40;;;;;;;;;;;;;;;4.13;99.19;99674.56;5089239;28;20260;-56
2023/04/21 04:11:05;;;;;;;;;;;;;;;4.23;99.53;99676.19;5090136;28;19919;-56
2023/04/21 04:13:31;;;;;;;;;;;;;;;4.25;99.68;99679.63;5088040;28;19951;-56
2023/04/21 04:15:57;;;;;;;;;;;;;;;4.34;99.97;99684.81;5088765;28;19974;-55
2023/04/21 04:18:22;;;;;;;;;;;;;;;4.45;100.00;99685.53;5088913;28;19916;-56
2023/04/21 04:20:47;;;;;;;;;;;;;;;4.47;100.00;99688.13;5088359;28;19990;-56
2023/04/21 04:23:13;;;;;;;;;;;;;;;4.55;100.00;99688.91;5090153;28;19923;-56
2023/04/21 04:25:38;;;;;;;;;;;;;;;4.43;100.00;99687.31;5088041;28;19916;-56
2023/04/21 04:28:04;;;;;;;;;;;;;;;4.55;100.00;99695.03;5089301;28;19920;-56
2023/04/21 04:30:31;;;;;;;;;;;;;;;4.52;100.00;99687.19;5089318;28;20382;-56
2023/04/21 04:32:57;;;;;;;;;;;;;;;4.66;100.00;99682.59;5071396;28;19959;-56
2023/04/21 04:35:22;;;;;;;;;;;;;;;4.74;100.00;99675.47;5083645;28;19956;-56
2023/04/21 04:37:48;;;;;;;;;;;;;;;4.78;100.00;99677.16;5089385;28;19920;-56
2023/04/21 04:40:14;;;;;;;;;;;;;;;4.79;100.00;99678.03;5089488;28;19947;-56
2023/04/21 04:42:40;;;;;;;;;;;;;;;4.82;100.00;99684.13;5086740;28;19959;-56
2023/04/21 04:45:07;;;;;;;;;;;;;;;4.81;100.00;99682.38;5086690;28;19960;-56
2023/04/21 04:47:35;;;;;;;;;;;;;;;4.76;100.00;99683.34;5085056;28;19920;-56
2023/04/21 04:50:00;;;;;;;;;;;;;;;4.70;99.78;99683.41;5085683;28;19920;-56
2023/04/21 04:52:26;;;;;;;;;;;;;;;4.66;100.00;99690.50;5089364;28;19923;-56
2023/04/21 04:54:51;;;;;;;;;;;;;;;4.73;100.00;99702.69;5090100;28;19916;-56
2023/04/21 04:57:16;;;;;;;;;;;;;;;4.82;100.00;99694.66;5091066;28;20567;-56
2023/04/21 04:59:41;;;;;;;;;;;;;;;4.86;100.00;99693.72;5090763;28;20003;-56
2023/04/21 05:02:07;;;;;;;;;;;;;;;4.90;100.00;99697.16;5092297;28;19927;-56
2023/04/21 05:04:35;;;;;;;;;;;;;;;5.00;100.00;99704.03;5092381;28;20014;-56
2023/04/21 05:07:00;;;;;;;;;;;;;;;5.06;100.00;99704.81;5091434;28;19920;-56
2023/04/21 05:09:26;;;;;;;;;;;;;;;5.11;100.00;99713.53;5093088;28;19916;-56
2023/04/21 05:11:51;;;;;;;;;;;;;;;5.17;100.00;99718.69;5094995;28;19916;-56
2023/04/21 05:14:16;;;;;;;;;;;;;;;5.25;100.00;99716.81;5092199;28;19916;-56
2023/04/21 05:16:44;;;;;;;;;;;;;;;5.32;100.00;99726.38;5090669;28;19931;-56
2023/04/21 05:19:10;;;;;;;;;;;;;;;5.37;100.00;99727.16;5091344;28;19920;-56
2023/04/21 05:21:35;;;;;;;;;;;;;;;5.51;100.00;99723.41;5089807;28;19922;-56
2023/04/21 05:24:00;;;;;;;;;;;;;;;5.60;100.00;99724.13;5090796;28;19927;-56
2023/04/21 05:26:26;;;;;;;;;;;;;;;5.69;100.00;99723.09;5091269;28;19965;-56
2023/04/21 05:28:52;;;;;;;;;;;;;;;5.75;100.00;99723.88;5100486;28;20294;-56
2023/04/21 05:31:17;;;;;;;;;;;;;;;5.84;100.00;99733.41;5094362;28;19920;-56
2023/04/21 05:33:43;;;;;;;;;;;;;;;5.76;100.00;99737.94;5092631;28;19912;-57
2023/04/21 05:36:08;;;;;;;;;;;;;;;5.85;100.00;99729.91;5091697;28;19920;-55
2023/04/21 05:38:34;;;;;;;;;;;;;;;5.92;100.00;99723.59;5092558;28;19922;-55
2023/04/21 05:40:59;;;;;;;;;;;;;;;5.99;100.00;99730.50;5091156;28;19924;-55
2023/04/21 05:43:25;;;;;;;;;;;;;;;6.06;100.00;99718.94;5090890;28;19920;-55
2023/04/21 05:45:50;;;;;;;;;;;;;;;6.20;100.00;99722.16;5091852;28;20002;-55
2023/04/21 05:48:15;;;;;;;;;;;;;;;6.28;100.00;99728.16;5091158;28;20413;-55
2023/04/21 05:50:40;;;;;;;;;;;;;;;6.31;100.00;99738.69;5091982;28;19919;-55
2023/04/21 05:53:06;;;;;;;;;;;;;;;6.23;100.00;99740.59;5091322;28;19999;-55
2023/04/21 05:55:33;;;;;;;;;;;;;;;6.34;100.00;99734.19;5073107;28;19927;-55
2023/04/21 05:57:58;;;;;;;;;;;;;;;6.48;100.00;99731.28;5090763;28;20450;-55
2023/04/21 06:00:23;;;;;;;;;;;;;;;6.60;100.00;99729.25;5090624;28;19920;-55
2023/04/21 06:02:49;;;;;;;;;;;;;;;6.72;100.00;99722.84;5090497;28;19947;-56
2023/04/21 06:05:15;;;;;;;;;;;;;;;6.85;100.00;99732.25;5091057;28;20007;-56
2023/04/21 06:07:40;;;;;;;;;;;;;;;6.89;100.00;99736.53;5090108;28;20363;-56
2023/04/21 06:10:06;;;;;;;;;;;;;;;7.00;100.00;99739.78;5089051;28;19916;-56
2023/04/21 06:12:31;;;;;;;;;;;;;;;7.15;100.00;99733.31;5091006;28;19922;-56
2023/04/21 06:14:56;;;;;;;;;;;;;;;7.31;100.00;99732.91;5091644;28;19914;-56
2023/04/21 06:17:22;;;;;;;;;;;;;;;7.45;100.00;99732.56;5077579;28;19920;-56
2023/04/21 06:19:51;;;;;;;;;;;;;;;7.45;100.00;99738.72;5089521;28;19970;-56
2023/04/21 06:22:17;;;;;;;;;;;;;;;7.59;100.00;99736.63;5091234;28;19991;-56
2023/04/21 06:24:42;;;;;;;;;;;;;;;7.47;100.00;99736.91;5091047;28;20011;-56
2023/04/21 06:27:13;;;;;;;;;;;;;;;7.59;100.00;99727.81;5091371;28;19923;-56
2023/04/21 06:29:39;;;;;;;;;;;;;;;7.69;100.00;99731.97;5089773;28;19916;-56
2023/04/21 06:32:04;;;;;;;;;;;;;;;7.88;100.00;99733.22;5086538;28;20483;-56
2023/04/21 06:34:29;;;;;;;;;;;;;;;8.07;100.00;99728.31;5090588;28;20581;-56
2023/04/21 06:36:55;;;;;;;;;;;;;;;8.23;99.80;99730.53;5090204;28;19924;-55
2023/04/21 06:39:20;;;;;;;;;;;;;;;8.14;98.66;99737.84;5091179;28;19981;-55
2023/04/21 06:41:46;;;;;;;;;;;;;;;8.22;98.40;99731.38;5090677;28;19924;-56
2023/04/21 06:44:12;;;;;;;;;;;;;;;8.19;98.58;99731.47;5087658;28;20302;-55
2023/04/21 06:46:39;;;;;;;;;;;;;;;8.20;98.08;99727.94;5082367;28;20558;-55
2023/04/21 06:49:04;;;;;;;;;;;;;;;8.07;98.29;99734.47;5091156;28;20006;-55
2023/04/21 06:51:31;;;;;;;;;;;;;;;8.20;98.60;99735.00;5090539;28;20374;-55
2023/04/21 06:53:56;;;;;;;;;;;;;;;8.34;98.24;99725.78;5090702;28;19916;-55
2023/04/21 06:56:21;;;;;;;;;;;;;;;8.41;97.30;99714.09;5087101;28;19931;-55
2023/04/21 06:58:46;;;;;;;;;;;;;;;8.59;97.08;99723.28;5074645;28;20066;-55
2023/04/21 07:01:12;;;;;;;;;;;;;;;8.53;94.00;99723.50;5079026;28;19923;-55
2023/04/21 07:03:37;;;;;;;;;;;;;;;8.52;94.77;99713.78;5088275;28;19939;-55
2023/04/21 07:06:02;;;;;;;;;;;;;;;8.61;94.87;99721.47;5084310;28;19916;-55
2023/04/21 07:08:27;;;;;;;;;;;;;;;8.62;94.45;99715.25;5086792;28;20320;-55
2023/04/21 07:10:53;;;;;;;;;;;;;;;8.91;94.68;99709.97;5086263;28;19923;-55
2023/04/21 07:13:18;;;;;;;;;;;;;;;9.20;92.56;99712.56;5086926;28;19965;-55
2023/04/21 07:15:43;;;;;;;;;;;;;;;9.40;90.06;99710.13;5086556;28;19924;-55
2023/04/21 07:18:09;;;;;;;;;;;;;;;9.22;89.29;99710.72;5070969;28;19922;-55
2023/04/21 07:20:34;;;;;;;;;;;;;;;9.46;89.11;99704.63;5087911;28;19923;-55
2023/04/21 07:22:59;;;;;;;;;;;;;;;9.78;88.70;99706.19;5091909;28;20337;-55
2023/04/21 07:25:25;;;;;;;;;;;;;;;9.73;87.01;99706.34;5087476;28;20069;-55
2023/04/21 07:27:50;;;;;;;;;;;;;;;9.57;86.06;99713.09;5089934;28;20533;-55
2023/04/21 07:30:15;;;;;;;;;;;;;;;9.25;86.22;99713.28;5089032;28;20411;-55
2023/04/21 07:32:41;;;;;;;;;;;;;;;9.33;86.98;99705.94;5088219;28;19920;-57
2023/04/21 07:35:06;;;;;;;;;;;;;;;9.53;87.65;99699.97;5078883;28;19923;-57
2023/04/21 07:37:31;;;;;;;;;;;;;;;9.88;87.59;99707.63;5087977;28;19942;-56
2023/04/21 07:39:57;;;;;;;;;;;;;;;9.93;86.95;99701.22;5086250;28;20339;-57
2023/04/21 07:42:22;;;;;;;;;;;;;;;10.14;86.50;99713.78;5069957;28;20444;-57
2023/04/21 07:44:47;;;;;;;;;;;;;;;10.20;83.18;99700.28;5086567;28;19920;-56
2023/04/21 07:47:13;;;;;;;;;;;;;;;10.35;83.58;99706.81;5087979;28;19926;-57
2023/04/21 07:49:38;;;;;;;;;;;;;;;10.12;83.02;99710.31;5087857;28;19912;-56
2023/04/21 07:52:03;;;;;;;;;;;;;;;10.04;84.55;99712.34;5086978;28;19970;-57
2023/04/21 07:54:29;;;;;;;;;;;;;;;9.90;84.28;99716.41;5087067;28;19970;-56
2023/04/21 07:56:54;;;;;;;;;;;;;;;9.99;86.12;99716.94;5088023;28;20410;-57
2023/04/21 07:59:20;;;;;;;;;;;;;;;10.30;86.84;99712.31;5086563;28;20293;-57
2023/04/21 08:01:45;;;;;;;;;;;;;;;10.68;86.58;99694.03;5088050;28;20434;-57
2023/04/21 08:04:10;;;;;;;;;;;;;;;10.84;83.52;99698.72;5089508;28;19916;-57
2023/04/21 08:06:36;;;;;;;;;;;;;;;10.66;83.01;99701.25;5088725;28;20360;-57
2023/04/21 08:09:01;;;;;;;;;;;;;;;10.74;83.16;99702.66;5086320;28;19995;-57
2023/04/21 08:11:27;;;;;;;;;;;;;;;10.94;82.39;99704.56;5089211;28;20388;-57
2023/04/21 08:13:53;;;;;;;;;;;;;;;11.17;81.99;99689.41;5088762;28;19920;-57
2023/04/21 08:16:18;;;;;;;;;;;;;;;11.49;81.41;99688.97;5089008;28;19931;-57
2023/04/21 08:18:43;;;;;;;;;;;;;;;12.05;82.37;99673.25;5088354;28;20354;-57
2023/04/21 08:21:08;;;;;;;;;;;;;;;12.27;78.65;99668.72;5089783;28;19920;-57
2023/04/21 08:23:34;;;;;;;;;;;;;;;12.25;75.98;99659.91;5089741;28;19990;-57
2023/04/21 08:26:00;;;;;;;;;;;;;;;12.82;75.70;99662.56;5077077;28;19943;-57
2023/04/21 08:28:26;;;;;;;;;;;;;;;13.59;74.18;99653.41;5075842;28;19916;-57
2023/04/21 08:30:51;;;;;;;;;;;;;;;14.42;70.85;99649.06;5090484;28;19921;-57
2023/04/21 08:33:16;;;;;;;;;;;;;;;15.17;68.76;99655.53;5095596;28;19966;-57
2023/04/21 08:35:41;;;;;;;;;;;;;;;15.95;66.28;99639.31;5092902;28;19920;-57
2023/04/21 08:38:07;;;;;;;;;;;;;;;15.94;61.08;99642.06;5091186;28;19938;-57
2023/04/21 08:40:34;;;;;;;;;;;;;;;16.05;60.12;99642.28;5092697;28;19920;-57
2023/04/21 08:42:59;;;;;;;;;;;;;;;16.12;59.29;99646.34;5089698;28;19973;-57
2023/04/21 08:45:26;;;;;;;;;;;;;;;16.78;59.78;99644.84;5072517;28;19916;-57
2023/04/21 08:47:53;;;;;;;;;;;;;;;17.25;56.95;99631.88;5085142;28;20725;-58
2023/04/21 08:50:19;;;;;;;;;;;;;;;17.72;57.33;99640.38;5093210;28;20402;-57
2023/04/21 08:52:45;;;;;;;;;;;;;;;17.96;54.82;99627.94;5091778;28;19916;-57
2023/04/21 08:55:10;;;;;;;;;;;;;;;18.18;54.80;99620.13;5092867;28;19922;-55
2023/04/21 08:57:35;;;;;;;;;;;;;;;18.27;52.62;99624.84;5091851;28;19927;-55
2023/04/21 09:00:01;;;;;;;;;;;;;;;18.69;51.64;99630.88;5092467;28;19924;-55
2023/04/21 09:02:26;;;;;;;;;;;;;;;18.94;50.23;99637.09;5092996;28;20375;-55
2023/04/21 09:04:53;;;;;;;;;;;;;;;19.01;51.64;99624.03;5092691;28;19916;-56
2023/04/21 09:07:35;;;;;;;;;;;;;;;18.93;50.44;99618.34;5094680;28;19931;-56
2023/04/21 09:10:00;;;;;;;;;;;;;;;18.99;49.74;99612.50;5092973;28;20046;-56
2023/04/21 09:12:26;;;;;;;;;;;;;;;19.26;49.02;99605.06;5092513;28;20007;-56
2023/04/21 09:14:52;;;;;;;;;;;;;;;19.45;47.47;99598.22;5091617;28;20014;-56
2023/04/21 09:17:17;;;;;;;;;;;;;;;19.93;48.19;99603.56;5092192;28;19920;-56
2023/04/21 09:19:43;;;;;;;;;;;;;;;20.24;47.08;99600.22;5091726;28;19966;-56
2023/04/21 09:22:13;;;;;;;;;;;;;;;20.17;46.97;99594.44;5090106;28;19947;-56
2023/04/21 09:24:43;;;;;;;;;;;;;;;20.39;48.57;99591.78;5091676;28;19915;-57
2023/04/21 09:27:08;;;;;;;;;;;;;;;20.72;47.22;99599.84;5091044;28;20018;-57
2023/04/21 09:29:34;;;;;;;;;;;;;;;20.61;47.46;99589.06;5089878;28;20454;-57
2023/04/21 09:32:00;;;;;;;;;;;;;;;21.39;47.83;99575.44;5091420;28;20393;-57
2023/04/21 09:34:25;;;;;;;;;;;;;;;21.59;43.44;99572.78;5089729;28;19912;-57
2023/04/21 09:37:11;;;;;;;;;;;;;;;21.99;43.65;99570.25;5090074;28;19931;-57
2023/04/21 09:39:37;;;;;;;;;;;;;;;21.84;46.35;99566.16;5089689;28;20015;-56
2023/04/21 09:42:02;;;;;;;;;;;;;;;22.09;45.08;99555.78;5091744;28;20002;-56
2023/04/21 09:44:28;;;;;;;;;;;;;;;22.17;43.80;99549.69;5091770;28;19916;-56
2023/04/21 09:46:58;;;;;;;;;;;;;;;21.88;43.82;99551.34;5090784;28;20026;-56
2023/04/21 09:49:27;;;;;;;;;;;;;;;21.76;44.79;99564.09;5091645;28;19923;-56
2023/04/21 09:51:52;;;;;;;;;;;;;;;21.36;46.87;99562.16;5087519;28;20299;-55
2023/04/21 09:54:19;;;;;;;;;;;;;;;21.71;44.60;99555.47;5077732;28;19998;-55
2023/04/21 09:56:48;;;;;;;;;;;;;;;22.09;45.48;99560.34;5091085;28;20609;-55
2023/04/21 09:59:16;;;;;;;;;;;;;;;22.01;44.72;99550.16;5090292;28;19924;-56
2023/04/21 10:01:42;;;;;;;;;;;;;;;22.61;44.85;99562.94;5090857;28;19920;-55
2023/04/21 10:04:08;;;;;;;;;;;;;;;22.95;42.80;99549.88;5091085;28;19961;-56
2023/04/21 10:06:35;;;;;;;;;;;;;;;23.02;42.67;99549.22;5090246;28;20379;-55
2023/04/21 10:09:02;;;;;;;;;;;;;;;23.33;44.88;99548.16;5091105;28;19924;-55
2023/04/21 10:11:28;;;;;;;;;;;;;;;23.47;43.53;99529.72;5090906;28;19919;-55
2023/04/21 10:13:53;;;;;;;;;;;;;;;23.65;42.31;99534.31;5091558;28;19924;-56
2023/04/21 10:16:20;;;;;;;;;;;;;;;23.77;42.87;99526.84;5089887;28;20421;-55
2023/04/21 10:18:45;;;;;;;;;;;;;;;24.01;43.00;99525.41;5089763;28;19920;-56
2023/04/21 10:21:11;;;;;;;;;;;;;;;24.17;43.59;99525.66;5090583;28;19920;-56
2023/04/21 10:23:37;;;;;;;;;;;;;;;24.21;41.02;99515.34;5070318;28;20392;-57
2023/04/21 10:26:03;;;;;;;;;;;;;;;24.49;41.70;99515.25;5090736;28;19952;-56
2023/04/21 10:28:39;;;;;;;;;;;;;;;24.41;41.24;99511.56;5094594;28;19927;-56
2023/04/21 10:31:18;;;;;;;;;;;;;;;24.58;41.62;99503.47;5087315;28;19924;-57
2023/04/21 10:34:02;;;;;;;;;;;;;;;24.97;42.48;99498.69;5091540;28;20014;-57
2023/04/21 10:36:27;;;;;;;;;;;;;;;25.10;40.65;99498.31;5089792;28;20368;-57
2023/04/21 10:38:54;;;;;;;;;;;;;;;25.05;41.04;99490.63;5089945;28;19931;-57
2023/04/21 10:41:32;;;;;;;;;;;;;;;25.15;40.79;99485.97;5089190;28;19962;-57
2023/04/21 10:43:58;;;;;;;;;;;;;;;25.12;40.52;99485.41;5089429;28;19920;-57
2023/04/21 10:46:40;;;;;;;;;;;;;;;25.15;42.44;99477.81;5089051;28;19938;-57
2023/04/21 10:49:06;;;;;;;;;;;;;;;25.52;42.91;99481.22;5090731;28;19920;-57
2023/04/21 10:51:31;;;;;;;;;;;;;;;25.82;38.96;99480.81;5089349;28;19920;-57
2023/04/21 10:53:57;;;;;;;;;;;;;;;25.52;38.63;99475.78;5090009;28;20265;-57
2023/04/21 10:56:22;;;;;;;;;;;;;;;25.61;38.94;99482.16;5089636;28;19916;-57
2023/04/21 10:58:48;;;;;;;;;;;;;;;25.94;38.31;99474.09;5090342;28;19920;-57
2023/04/21 11:01:14;;;;;;;;;;;;;;;26.01;38.76;99468.88;5089272;28;20410;-57
2023/04/21 11:03:39;;;;;;;;;;;;;;;26.10;37.64;99467.03;5089743;28;19938;-57
2023/04/21 11:06:16;;;;;;;;;;;;;;;26.15;38.61;99454.63;5091798;28;19981;-57
2023/04/21 11:08:54;;;;;;;;;;;;;;;26.42;40.21;99457.19;5088612;28;19920;-57
2023/04/21 11:11:23;;;;;;;;;;;;;;;26.80;37.31;99450.38;5089725;28;20286;-57
2023/04/21 11:13:51;;;;;;;;;;;;;;;27.29;37.70;99449.47;5089100;28;20022;-58
2023/04/21 11:16:16;;;;;;;;;;;;;;;27.35;36.48;99439.75;5088959;28;19954;-58
2023/04/21 11:18:42;;;;;;;;;;;;;;;27.32;37.04;99446.38;5089382;28;19938;-58
2023/04/21 11:21:16;;;;;;;;;;;;;;;27.48;37.33;99442.81;5070272;28;19924;-58
2023/04/21 11:23:47;;;;;;;;;;;;;;;27.27;35.58;99448.75;5092002;28;20046;-58
2023/04/21 11:26:12;;;;;;;;;;;;;;;27.27;38.29;99446.00;5090477;28;19920;-59
2023/04/21 11:28:39;;;;;;;;;;;;;;;27.54;37.36;99444.88;5090824;28;20768;-57
2023/04/21 11:31:04;;;;;;;;;;;;;;;27.62;36.98;99434.78;5091102;28;19963;-58
2023/04/21 11:33:34;;;;;;;;;;;;;;;27.27;36.06;99440.53;5089212;28;20015;-58
2023/04/21 11:36:02;;;;;;;;;;;;;;;26.80;36.40;99428.53;5090979;28;19931;-57
2023/04/21 11:38:35;;;;;;;;;;;;;;;27.29;38.15;99424.88;5090192;28;19966;-58
2023/04/21 11:41:00;;;;;;;;;;;;;;;27.77;37.78;99422.13;5072511;28;20014;-58
2023/04/21 11:43:26;;;;;;;;;;;;;;;27.91;36.51;99420.59;5090883;28;20003;-58
2023/04/21 11:45:51;;;;;;;;;;;;;;;28.03;36.19;99428.25;5089693;28;20010;-58
2023/04/21 11:48:18;;;;;;;;;;;;;;;28.07;35.52;99424.13;5090737;28;19962;-58
2023/04/21 11:50:49;;;;;;;;;;;;;;;27.99;34.13;99429.63;5089902;28;19925;-58
2023/04/21 11:53:15;;;;;;;;;;;;;;;28.06;35.86;99429.78;5090921;28;19924;-58
2023/04/21 11:55:46;;;;;;;;;;;;;;;28.25;35.06;99424.75;5090615;28;19954;-58
2023/04/21 11:58:15;;;;;;;;;;;;;;;28.60;35.09;99422.63;5091250;28;19979;-57
2023/04/21 12:00:42;;;;;;;;;;;;;;;28.61;34.39;99429.78;5093102;28;20376;-58
2023/04/21 12:03:09;;;;;;;;;;;;;;;28.99;35.07;99424.28;5093490;28;19916;-58
2023/04/21 12:05:35;;;;;;;;;;;;;;;28.92;34.21;99416.94;5092543;28;19923;-58
2023/04/21 12:08:00;;;;;;;;;;;;;;;28.76;34.31;99415.19;5093916;28;20291;-58
2023/04/21 12:10:27;;;;;;;;;;;;;;;28.94;33.91;99418.50;5087314;28;19920;-58
2023/04/21 12:12:55;;;;;;;;;;;;;;;28.89;33.99;99414.59;5087191;28;19916;-58
2023/04/21 12:15:21;;;;;;;;;;;;;;;28.64;34.00;99413.00;5094075;28;20374;-58
2023/04/21 12:17:48;;;;;;;;;;;;;;;28.57;35.17;99406.56;5093683;28;19920;-58
2023/04/21 12:20:18;;;;;;;;;;;;;;;28.36;34.55;99409.84;5073176;28;19920;-57
2023/04/21 12:22:43;;;;;;;;;;;;;;;28.17;34.41;99413.84;5093790;28;19955;-58
2023/04/21 12:25:09;;;;;;;;;;;;;;;28.20;36.59;99410.75;5093214;28;20353;-58
2023/04/21 12:27:34;;;;;;;;;;;;;;;27.91;35.00;99407.78;5093083;28;19922;-58
2023/04/21 12:29:59;;;;;;;;;;;;;;;27.94;34.68;99410.16;5094991;28;20472;-58
2023/04/21 12:32:25;;;;;;;;;;;;;;;28.21;35.34;99400.69;5073591;28;19912;-59
2023/04/21 12:34:51;;;;;;;;;;;;;;;27.84;35.00;99404.00;5084654;28;19931;-57
2023/04/21 12:37:17;;;;;;;;;;;;;;;27.21;36.46;99395.63;5093417;28;19917;-58
2023/04/21 12:39:42;;;;;;;;;;;;;;;26.63;36.65;99400.31;5081664;28;19916;-59
2023/04/21 12:42:08;;;;;;;;;;;;;;;26.61;37.96;99396.03;5089495;28;19927;-58
2023/04/21 12:44:33;;;;;;;;;;;;;;;27.17;36.79;99399.75;5093458;28;19959;-58